sensor_id;sensor_type;location;lat;lon;timestamp;P1;durP1;ratioP1;P2;durP2;ratioP2
54191;SDS011;40101;53.002;6.488;2023-07-29T00:00:39;7.25;;;6.53;;
54191;SDS011;40101;53.002;6.488;2023-07-29T00:03:05;7.95;;;7.15;;
54191;SDS011;40101;53.002;6.488;2023-07-29T00:05:32;13.25;;;7.07;;
54191;SDS011;40101;53.002;6.488;2023-07-29T00:07:57;10.68;;;7.15;;
54191;SDS011;40101;53.002;6.488;2023-07-29T00:10:23;9.60;;;5.88;;
54191;SDS011;40101;53.002;6.488;2023-07-29T00:12:48;8.90;;;6.07;;
54191;SDS011;40101;53.002;6.488;2023-07-29T00:15:14;8.93;;;7.22;;
54191;SDS011;40101;53.002;6.488;2023-07-29T00:17:40;8.55;;;7.22;;
54191;SDS011;40101;53.002;6.488;2023-07-29T00:20:06;10.77;;;7.35;;
54191;SDS011;40101;53.002;6.488;2023-07-29T00:22:32;12.40;;;7.63;;
54191;SDS011;40101;53.002;6.488;2023-07-29T00:24:58;11.32;;;7.30;;
54191;SDS011;40101;53.002;6.488;2023-07-29T00:27:24;8.68;;;7.53;;
54191;SDS011;40101;53.002;6.488;2023-07-29T00:29:51;7.75;;;6.75;;
54191;SDS011;40101;53.002;6.488;2023-07-29T00:32:16;8.05;;;7.15;;
54191;SDS011;40101;53.002;6.488;2023-07-29T00:34:42;14.07;;;6.63;;
54191;SDS011;40101;53.002;6.488;2023-07-29T00:37:08;9.00;;;6.85;;
54191;SDS011;40101;53.002;6.488;2023-07-29T00:39:35;10.63;;;6.85;;
54191;SDS011;40101;53.002;6.488;2023-07-29T00:42:02;10.85;;;8.00;;
54191;SDS011;40101;53.002;6.488;2023-07-29T00:44:28;7.93;;;6.53;;
54191;SDS011;40101;53.002;6.488;2023-07-29T00:46:54;9.25;;;6.95;;
54191;SDS011;40101;53.002;6.488;2023-07-29T00:49:20;8.20;;;7.30;;
54191;SDS011;40101;53.002;6.488;2023-07-29T00:51:46;7.25;;;6.53;;
54191;SDS011;40101;53.002;6.488;2023-07-29T00:54:13;11.05;;;6.93;;
54191;SDS011;40101;53.002;6.488;2023-07-29T00:56:39;11.23;;;6.93;;
54191;SDS011;40101;53.002;6.488;2023-07-29T00:59:05;7.95;;;7.03;;
54191;SDS011;40101;53.002;6.488;2023-07-29T01:01:31;11.23;;;7.38;;
54191;SDS011;40101;53.002;6.488;2023-07-29T01:03:57;7.47;;;6.63;;
54191;SDS011;40101;53.002;6.488;2023-07-29T01:06:34;7.40;;;6.68;;
54191;SDS011;40101;53.002;6.488;2023-07-29T01:09:09;9.45;;;7.47;;
54191;SDS011;40101;53.002;6.488;2023-07-29T01:15:36;7.50;;;6.22;;
54191;SDS011;40101;53.002;6.488;2023-07-29T01:17:43;9.23;;;7.68;;
54191;SDS011;40101;53.002;6.488;2023-07-29T01:20:15;9.95;;;7.40;;
54191;SDS011;40101;53.002;6.488;2023-07-29T01:22:42;10.10;;;7.72;;
54191;SDS011;40101;53.002;6.488;2023-07-29T01:25:08;9.13;;;6.70;;
54191;SDS011;40101;53.002;6.488;2023-07-29T01:27:34;7.68;;;6.88;;
54191;SDS011;40101;53.002;6.488;2023-07-29T01:30:00;8.02;;;6.65;;
54191;SDS011;40101;53.002;6.488;2023-07-29T01:38:16;8.60;;;7.07;;
54191;SDS011;40101;53.002;6.488;2023-07-29T01:40:44;10.68;;;7.35;;
54191;SDS011;40101;53.002;6.488;2023-07-29T01:43:10;10.35;;;7.00;;
54191;SDS011;40101;53.002;6.488;2023-07-29T01:45:37;10.32;;;7.45;;
54191;SDS011;40101;53.002;6.488;2023-07-29T01:48:07;8.68;;;7.75;;
54191;SDS011;40101;53.002;6.488;2023-07-29T01:50:33;8.05;;;6.43;;
54191;SDS011;40101;53.002;6.488;2023-07-29T01:52:59;9.73;;;7.32;;
54191;SDS011;40101;53.002;6.488;2023-07-29T01:55:25;7.68;;;6.68;;
54191;SDS011;40101;53.002;6.488;2023-07-29T01:57:51;9.48;;;7.13;;
54191;SDS011;40101;53.002;6.488;2023-07-29T02:00:17;10.30;;;6.35;;
54191;SDS011;40101;53.002;6.488;2023-07-29T02:02:43;10.60;;;7.60;;
54191;SDS011;40101;53.002;6.488;2023-07-29T02:05:09;10.30;;;7.57;;
54191;SDS011;40101;53.002;6.488;2023-07-29T02:07:35;7.85;;;6.90;;
54191;SDS011;40101;53.002;6.488;2023-07-29T02:10:00;9.45;;;6.78;;
54191;SDS011;40101;53.002;6.488;2023-07-29T02:12:26;8.23;;;6.50;;
54191;SDS011;40101;53.002;6.488;2023-07-29T02:14:52;9.70;;;7.38;;
54191;SDS011;40101;53.002;6.488;2023-07-29T02:17:17;13.25;;;7.40;;
54191;SDS011;40101;53.002;6.488;2023-07-29T02:19:43;8.10;;;6.70;;
54191;SDS011;40101;53.002;6.488;2023-07-29T02:22:10;10.13;;;7.38;;
54191;SDS011;40101;53.002;6.488;2023-07-29T02:24:38;9.93;;;6.25;;
54191;SDS011;40101;53.002;6.488;2023-07-29T02:27:04;8.82;;;7.05;;
54191;SDS011;40101;53.002;6.488;2023-07-29T02:29:29;8.43;;;7.18;;
54191;SDS011;40101;53.002;6.488;2023-07-29T02:31:55;9.88;;;6.43;;
54191;SDS011;40101;53.002;6.488;2023-07-29T02:34:21;7.05;;;6.10;;
54191;SDS011;40101;53.002;6.488;2023-07-29T02:36:47;8.05;;;6.65;;
54191;SDS011;40101;53.002;6.488;2023-07-29T02:39:12;8.88;;;6.38;;
54191;SDS011;40101;53.002;6.488;2023-07-29T02:41:38;6.15;;;5.50;;
54191;SDS011;40101;53.002;6.488;2023-07-29T02:44:04;7.53;;;5.95;;
54191;SDS011;40101;53.002;6.488;2023-07-29T02:46:30;9.68;;;5.82;;
54191;SDS011;40101;53.002;6.488;2023-07-29T02:48:55;6.88;;;6.07;;
54191;SDS011;40101;53.002;6.488;2023-07-29T02:51:21;6.20;;;5.60;;
54191;SDS011;40101;53.002;6.488;2023-07-29T02:53:47;8.75;;;6.40;;
54191;SDS011;40101;53.002;6.488;2023-07-29T02:56:12;5.95;;;5.32;;
54191;SDS011;40101;53.002;6.488;2023-07-29T02:58:38;6.82;;;5.60;;
54191;SDS011;40101;53.002;6.488;2023-07-29T03:01:05;7.10;;;5.10;;
54191;SDS011;40101;53.002;6.488;2023-07-29T03:03:31;6.18;;;5.40;;
54191;SDS011;40101;53.002;6.488;2023-07-29T03:06:04;6.53;;;5.43;;
54191;SDS011;40101;53.002;6.488;2023-07-29T03:08:31;5.07;;;4.57;;
54191;SDS011;40101;53.002;6.488;2023-07-29T03:10:57;10.65;;;6.43;;
54191;SDS011;40101;53.002;6.488;2023-07-29T03:13:23;5.22;;;4.72;;
54191;SDS011;40101;53.002;6.488;2023-07-29T03:15:49;6.55;;;4.88;;
54191;SDS011;40101;53.002;6.488;2023-07-29T03:18:15;6.65;;;4.65;;
54191;SDS011;40101;53.002;6.488;2023-07-29T03:20:41;11.10;;;4.88;;
54191;SDS011;40101;53.002;6.488;2023-07-29T03:23:06;5.38;;;4.32;;
54191;SDS011;40101;53.002;6.488;2023-07-29T03:25:32;7.13;;;4.47;;
54191;SDS011;40101;53.002;6.488;2023-07-29T03:27:58;6.10;;;4.82;;
54191;SDS011;40101;53.002;6.488;2023-07-29T03:30:24;6.20;;;5.03;;
54191;SDS011;40101;53.002;6.488;2023-07-29T03:32:49;5.90;;;4.53;;
54191;SDS011;40101;53.002;6.488;2023-07-29T03:35:15;9.43;;;4.50;;
54191;SDS011;40101;53.002;6.488;2023-07-29T03:37:41;6.32;;;4.68;;
54191;SDS011;40101;53.002;6.488;2023-07-29T03:40:07;7.72;;;4.50;;
54191;SDS011;40101;53.002;6.488;2023-07-29T03:42:36;6.60;;;4.30;;
54191;SDS011;40101;53.002;6.488;2023-07-29T03:45:02;6.72;;;4.55;;
54191;SDS011;40101;53.002;6.488;2023-07-29T03:47:28;5.30;;;3.92;;
54191;SDS011;40101;53.002;6.488;2023-07-29T03:49:53;5.45;;;4.05;;
54191;SDS011;40101;53.002;6.488;2023-07-29T03:52:19;5.38;;;3.95;;
54191;SDS011;40101;53.002;6.488;2023-07-29T03:54:45;6.47;;;5.07;;
54191;SDS011;40101;53.002;6.488;2023-07-29T03:57:10;13.20;;;4.20;;
54191;SDS011;40101;53.002;6.488;2023-07-29T03:59:36;6.82;;;4.03;;
54191;SDS011;40101;53.002;6.488;2023-07-29T04:02:02;8.38;;;4.30;;
54191;SDS011;40101;53.002;6.488;2023-07-29T04:04:28;6.03;;;4.20;;
54191;SDS011;40101;53.002;6.488;2023-07-29T04:06:53;9.48;;;4.43;;
54191;SDS011;40101;53.002;6.488;2023-07-29T04:09:19;6.05;;;5.00;;
54191;SDS011;40101;53.002;6.488;2023-07-29T04:11:45;7.07;;;4.28;;
54191;SDS011;40101;53.002;6.488;2023-07-29T04:14:10;8.18;;;4.55;;
54191;SDS011;40101;53.002;6.488;2023-07-29T04:16:36;6.20;;;5.13;;
54191;SDS011;40101;53.002;6.488;2023-07-29T04:19:01;5.50;;;4.10;;
54191;SDS011;40101;53.002;6.488;2023-07-29T04:21:27;8.13;;;3.58;;
54191;SDS011;40101;53.002;6.488;2023-07-29T04:23:53;7.20;;;4.43;;
54191;SDS011;40101;53.002;6.488;2023-07-29T04:26:18;8.45;;;4.05;;
54191;SDS011;40101;53.002;6.488;2023-07-29T04:28:44;6.05;;;4.07;;
54191;SDS011;40101;53.002;6.488;2023-07-29T04:31:10;7.15;;;4.35;;
54191;SDS011;40101;53.002;6.488;2023-07-29T04:33:35;5.38;;;4.68;;
54191;SDS011;40101;53.002;6.488;2023-07-29T04:36:01;6.93;;;3.97;;
54191;SDS011;40101;53.002;6.488;2023-07-29T04:38:32;6.25;;;4.15;;
54191;SDS011;40101;53.002;6.488;2023-07-29T04:40:59;7.43;;;3.97;;
54191;SDS011;40101;53.002;6.488;2023-07-29T04:43:28;4.60;;;4.15;;
54191;SDS011;40101;53.002;6.488;2023-07-29T04:45:55;5.30;;;3.80;;
54191;SDS011;40101;53.002;6.488;2023-07-29T04:48:21;7.85;;;4.35;;
54191;SDS011;40101;53.002;6.488;2023-07-29T04:50:47;4.88;;;3.58;;
54191;SDS011;40101;53.002;6.488;2023-07-29T04:53:12;5.70;;;3.53;;
54191;SDS011;40101;53.002;6.488;2023-07-29T04:55:38;8.07;;;3.20;;
54191;SDS011;40101;53.002;6.488;2023-07-29T04:58:06;4.50;;;3.30;;
54191;SDS011;40101;53.002;6.488;2023-07-29T05:00:32;7.07;;;3.83;;
54191;SDS011;40101;53.002;6.488;2023-07-29T05:02:58;8.75;;;3.78;;
54191;SDS011;40101;53.002;6.488;2023-07-29T05:05:24;9.40;;;3.30;;
54191;SDS011;40101;53.002;6.488;2023-07-29T05:07:49;5.88;;;3.00;;
54191;SDS011;40101;53.002;6.488;2023-07-29T05:10:15;6.43;;;4.25;;
54191;SDS011;40101;53.002;6.488;2023-07-29T05:12:41;7.95;;;3.28;;
54191;SDS011;40101;53.002;6.488;2023-07-29T05:15:06;6.68;;;3.47;;
54191;SDS011;40101;53.002;6.488;2023-07-29T05:17:32;5.40;;;3.20;;
54191;SDS011;40101;53.002;6.488;2023-07-29T05:19:58;15.25;;;3.28;;
54191;SDS011;40101;53.002;6.488;2023-07-29T05:22:24;3.90;;;2.95;;
54191;SDS011;40101;53.002;6.488;2023-07-29T05:24:50;5.88;;;3.92;;
54191;SDS011;40101;53.002;6.488;2023-07-29T05:27:15;6.97;;;3.15;;
54191;SDS011;40101;53.002;6.488;2023-07-29T05:29:41;4.55;;;2.95;;
54191;SDS011;40101;53.002;6.488;2023-07-29T05:32:07;4.22;;;3.13;;
54191;SDS011;40101;53.002;6.488;2023-07-29T05:34:32;6.05;;;3.72;;
54191;SDS011;40101;53.002;6.488;2023-07-29T05:36:58;3.33;;;2.55;;
54191;SDS011;40101;53.002;6.488;2023-07-29T05:39:24;4.65;;;3.05;;
54191;SDS011;40101;53.002;6.488;2023-07-29T05:41:49;4.57;;;3.10;;
54191;SDS011;40101;53.002;6.488;2023-07-29T05:44:15;5.13;;;3.05;;
54191;SDS011;40101;53.002;6.488;2023-07-29T05:46:40;4.25;;;3.00;;
54191;SDS011;40101;53.002;6.488;2023-07-29T05:49:06;4.88;;;2.67;;
54191;SDS011;40101;53.002;6.488;2023-07-29T05:51:32;4.30;;;2.80;;
54191;SDS011;40101;53.002;6.488;2023-07-29T05:53:57;6.00;;;2.88;;
54191;SDS011;40101;53.002;6.488;2023-07-29T05:56:23;5.93;;;3.00;;
54191;SDS011;40101;53.002;6.488;2023-07-29T05:58:49;6.20;;;3.75;;
54191;SDS011;40101;53.002;6.488;2023-07-29T06:01:15;5.38;;;3.28;;
54191;SDS011;40101;53.002;6.488;2023-07-29T06:03:40;3.50;;;2.70;;
54191;SDS011;40101;53.002;6.488;2023-07-29T06:06:06;17.92;;;3.58;;
54191;SDS011;40101;53.002;6.488;2023-07-29T06:08:31;5.72;;;3.00;;
54191;SDS011;40101;53.002;6.488;2023-07-29T06:10:59;4.03;;;2.63;;
54191;SDS011;40101;53.002;6.488;2023-07-29T06:13:25;4.05;;;2.30;;
54191;SDS011;40101;53.002;6.488;2023-07-29T06:15:50;5.35;;;3.05;;
54191;SDS011;40101;53.002;6.488;2023-07-29T06:18:16;7.63;;;3.20;;
54191;SDS011;40101;53.002;6.488;2023-07-29T06:20:42;6.82;;;3.35;;
54191;SDS011;40101;53.002;6.488;2023-07-29T06:23:08;5.88;;;3.05;;
54191;SDS011;40101;53.002;6.488;2023-07-29T06:25:34;5.45;;;2.92;;
54191;SDS011;40101;53.002;6.488;2023-07-29T06:27:59;4.65;;;2.60;;
54191;SDS011;40101;53.002;6.488;2023-07-29T06:30:25;3.83;;;2.72;;
54191;SDS011;40101;53.002;6.488;2023-07-29T06:32:51;3.72;;;3.03;;
54191;SDS011;40101;53.002;6.488;2023-07-29T06:35:17;4.05;;;2.58;;
54191;SDS011;40101;53.002;6.488;2023-07-29T06:37:42;5.90;;;2.78;;
54191;SDS011;40101;53.002;6.488;2023-07-29T06:40:08;7.50;;;3.03;;
54191;SDS011;40101;53.002;6.488;2023-07-29T06:42:34;4.45;;;2.70;;
54191;SDS011;40101;53.002;6.488;2023-07-29T06:45:00;5.00;;;2.40;;
54191;SDS011;40101;53.002;6.488;2023-07-29T06:47:25;5.78;;;2.95;;
54191;SDS011;40101;53.002;6.488;2023-07-29T06:49:51;5.45;;;2.53;;
54191;SDS011;40101;53.002;6.488;2023-07-29T06:52:17;5.88;;;3.03;;
54191;SDS011;40101;53.002;6.488;2023-07-29T06:54:42;5.18;;;2.85;;
54191;SDS011;40101;53.002;6.488;2023-07-29T06:57:08;5.38;;;3.15;;
54191;SDS011;40101;53.002;6.488;2023-07-29T06:59:33;6.57;;;3.30;;
54191;SDS011;40101;53.002;6.488;2023-07-29T07:01:59;8.82;;;3.33;;
54191;SDS011;40101;53.002;6.488;2023-07-29T07:04:25;5.70;;;3.30;;
54191;SDS011;40101;53.002;6.488;2023-07-29T07:06:51;6.63;;;3.53;;
54191;SDS011;40101;53.002;6.488;2023-07-29T07:09:16;6.18;;;3.28;;
54191;SDS011;40101;53.002;6.488;2023-07-29T07:11:42;6.90;;;3.47;;
54191;SDS011;40101;53.002;6.488;2023-07-29T07:14:07;8.30;;;2.97;;
54191;SDS011;40101;53.002;6.488;2023-07-29T07:16:33;6.35;;;3.83;;
54191;SDS011;40101;53.002;6.488;2023-07-29T07:19:01;8.55;;;3.58;;
54191;SDS011;40101;53.002;6.488;2023-07-29T07:21:27;5.35;;;3.13;;
54191;SDS011;40101;53.002;6.488;2023-07-29T07:23:53;9.73;;;3.83;;
54191;SDS011;40101;53.002;6.488;2023-07-29T07:26:18;9.57;;;3.50;;
54191;SDS011;40101;53.002;6.488;2023-07-29T07:28:44;10.10;;;3.40;;
54191;SDS011;40101;53.002;6.488;2023-07-29T07:31:10;5.93;;;2.92;;
54191;SDS011;40101;53.002;6.488;2023-07-29T07:33:35;9.75;;;3.50;;
54191;SDS011;40101;53.002;6.488;2023-07-29T07:36:01;7.07;;;3.28;;
54191;SDS011;40101;53.002;6.488;2023-07-29T07:38:27;5.50;;;3.20;;
54191;SDS011;40101;53.002;6.488;2023-07-29T07:40:53;7.80;;;3.38;;
54191;SDS011;40101;53.002;6.488;2023-07-29T07:43:23;9.40;;;3.40;;
54191;SDS011;40101;53.002;6.488;2023-07-29T07:45:49;9.95;;;4.68;;
54191;SDS011;40101;53.002;6.488;2023-07-29T07:48:15;10.05;;;3.80;;
54191;SDS011;40101;53.002;6.488;2023-07-29T07:50:42;5.35;;;3.65;;
54191;SDS011;40101;53.002;6.488;2023-07-29T07:53:08;9.60;;;3.97;;
54191;SDS011;40101;53.002;6.488;2023-07-29T07:55:33;5.55;;;3.08;;
54191;SDS011;40101;53.002;6.488;2023-07-29T07:57:59;7.00;;;3.35;;
54191;SDS011;40101;53.002;6.488;2023-07-29T08:00:25;7.30;;;2.90;;
54191;SDS011;40101;53.002;6.488;2023-07-29T08:02:50;7.47;;;3.30;;
54191;SDS011;40101;53.002;6.488;2023-07-29T08:05:16;6.93;;;3.83;;
54191;SDS011;40101;53.002;6.488;2023-07-29T08:07:43;6.90;;;2.83;;
54191;SDS011;40101;53.002;6.488;2023-07-29T08:10:09;7.05;;;3.78;;
54191;SDS011;40101;53.002;6.488;2023-07-29T08:12:34;13.80;;;3.63;;
54191;SDS011;40101;53.002;6.488;2023-07-29T08:15:00;8.85;;;3.67;;
54191;SDS011;40101;53.002;6.488;2023-07-29T08:17:26;5.95;;;3.55;;
54191;SDS011;40101;53.002;6.488;2023-07-29T08:19:51;7.55;;;3.05;;
54191;SDS011;40101;53.002;6.488;2023-07-29T08:22:17;5.40;;;2.45;;
54191;SDS011;40101;53.002;6.488;2023-07-29T08:24:43;4.72;;;2.83;;
54191;SDS011;40101;53.002;6.488;2023-07-29T08:27:08;5.55;;;2.45;;
54191;SDS011;40101;53.002;6.488;2023-07-29T08:29:35;4.10;;;2.25;;
54191;SDS011;40101;53.002;6.488;2023-07-29T08:32:01;6.10;;;2.80;;
54191;SDS011;40101;53.002;6.488;2023-07-29T08:34:27;4.68;;;2.03;;
54191;SDS011;40101;53.002;6.488;2023-07-29T08:36:52;3.20;;;1.80;;
54191;SDS011;40101;53.002;6.488;2023-07-29T08:39:18;4.03;;;1.83;;
54191;SDS011;40101;53.002;6.488;2023-07-29T08:41:46;4.15;;;2.00;;
54191;SDS011;40101;53.002;6.488;2023-07-29T08:44:21;4.53;;;2.03;;
54191;SDS011;40101;53.002;6.488;2023-07-29T08:46:48;3.08;;;1.80;;
54191;SDS011;40101;53.002;6.488;2023-07-29T08:49:15;5.88;;;2.63;;
54191;SDS011;40101;53.002;6.488;2023-07-29T08:51:44;3.78;;;1.80;;
54191;SDS011;40101;53.002;6.488;2023-07-29T08:54:12;6.72;;;2.08;;
54191;SDS011;40101;53.002;6.488;2023-07-29T08:56:40;4.25;;;1.92;;
54191;SDS011;40101;53.002;6.488;2023-07-29T08:59:06;5.35;;;1.90;;
54191;SDS011;40101;53.002;6.488;2023-07-29T09:01:33;5.05;;;2.72;;
54191;SDS011;40101;53.002;6.488;2023-07-29T09:03:59;4.47;;;1.60;;
54191;SDS011;40101;53.002;6.488;2023-07-29T09:06:25;5.22;;;2.78;;
54191;SDS011;40101;53.002;6.488;2023-07-29T09:08:53;6.18;;;1.83;;
54191;SDS011;40101;53.002;6.488;2023-07-29T09:11:21;3.05;;;1.50;;
54191;SDS011;40101;53.002;6.488;2023-07-29T09:13:47;3.85;;;1.42;;
54191;SDS011;40101;53.002;6.488;2023-07-29T09:16:13;3.95;;;1.85;;
54191;SDS011;40101;53.002;6.488;2023-07-29T09:18:39;5.43;;;1.30;;
54191;SDS011;40101;53.002;6.488;2023-07-29T09:21:05;2.58;;;1.58;;
54191;SDS011;40101;53.002;6.488;2023-07-29T09:23:44;7.13;;;1.85;;
54191;SDS011;40101;53.002;6.488;2023-07-29T09:26:10;4.80;;;1.60;;
54191;SDS011;40101;53.002;6.488;2023-07-29T09:28:37;3.75;;;1.48;;
54191;SDS011;40101;53.002;6.488;2023-07-29T09:31:04;3.65;;;1.35;;
54191;SDS011;40101;53.002;6.488;2023-07-29T09:33:33;3.67;;;1.77;;
54191;SDS011;40101;53.002;6.488;2023-07-29T09:36:09;3.13;;;1.20;;
54191;SDS011;40101;53.002;6.488;2023-07-29T09:38:35;3.90;;;1.58;;
54191;SDS011;40101;53.002;6.488;2023-07-29T09:41:01;5.03;;;1.73;;
54191;SDS011;40101;53.002;6.488;2023-07-29T09:43:34;5.65;;;1.98;;
54191;SDS011;40101;53.002;6.488;2023-07-29T09:46:00;4.22;;;1.85;;
54191;SDS011;40101;53.002;6.488;2023-07-29T09:48:27;4.82;;;1.27;;
54191;SDS011;40101;53.002;6.488;2023-07-29T09:50:55;4.32;;;1.58;;
54191;SDS011;40101;53.002;6.488;2023-07-29T09:53:21;4.47;;;1.70;;
54191;SDS011;40101;53.002;6.488;2023-07-29T09:55:47;1.52;;;0.85;;
54191;SDS011;40101;53.002;6.488;2023-07-29T09:58:15;2.35;;;1.23;;
54191;SDS011;40101;53.002;6.488;2023-07-29T10:00:50;3.67;;;1.75;;
54191;SDS011;40101;53.002;6.488;2023-07-29T10:03:16;5.70;;;1.85;;
54191;SDS011;40101;53.002;6.488;2023-07-29T10:05:44;4.78;;;1.48;;
54191;SDS011;40101;53.002;6.488;2023-07-29T10:08:11;3.05;;;1.50;;
54191;SDS011;40101;53.002;6.488;2023-07-29T10:10:38;4.13;;;1.35;;
54191;SDS011;40101;53.002;6.488;2023-07-29T10:13:06;4.10;;;1.67;;
54191;SDS011;40101;53.002;6.488;2023-07-29T10:15:32;2.00;;;1.35;;
54191;SDS011;40101;53.002;6.488;2023-07-29T10:17:59;4.18;;;1.67;;
54191;SDS011;40101;53.002;6.488;2023-07-29T10:20:26;3.55;;;1.27;;
54191;SDS011;40101;53.002;6.488;2023-07-29T10:22:52;5.20;;;1.30;;
54191;SDS011;40101;53.002;6.488;2023-07-29T10:25:23;2.88;;;1.15;;
54191;SDS011;40101;53.002;6.488;2023-07-29T10:30:32;2.78;;;1.02;;
54191;SDS011;40101;53.002;6.488;2023-07-29T10:33:03;3.88;;;1.50;;
54191;SDS011;40101;53.002;6.488;2023-07-29T10:35:30;2.13;;;0.90;;
54191;SDS011;40101;53.002;6.488;2023-07-29T10:37:58;5.80;;;1.20;;
54191;SDS011;40101;53.002;6.488;2023-07-29T10:40:24;2.60;;;1.02;;
54191;SDS011;40101;53.002;6.488;2023-07-29T10:43:03;3.00;;;1.23;;
54191;SDS011;40101;53.002;6.488;2023-07-29T10:45:37;2.45;;;1.00;;
54191;SDS011;40101;53.002;6.488;2023-07-29T10:50:36;1.75;;;0.98;;
54191;SDS011;40101;53.002;6.488;2023-07-29T10:53:02;7.28;;;1.48;;
54191;SDS011;40101;53.002;6.488;2023-07-29T10:55:28;5.43;;;1.70;;
54191;SDS011;40101;53.002;6.488;2023-07-29T11:00:33;5.22;;;1.52;;
54191;SDS011;40101;53.002;6.488;2023-07-29T11:03:00;2.97;;;1.30;;
54191;SDS011;40101;53.002;6.488;2023-07-29T11:08:16;3.40;;;1.10;;
54191;SDS011;40101;53.002;6.488;2023-07-29T11:10:44;4.45;;;0.63;;
54191;SDS011;40101;53.002;6.488;2023-07-29T11:13:22;3.60;;;0.90;;
54191;SDS011;40101;53.002;6.488;2023-07-29T11:15:47;3.35;;;0.90;;
54191;SDS011;40101;53.002;6.488;2023-07-29T11:18:15;2.53;;;0.95;;
54191;SDS011;40101;53.002;6.488;2023-07-29T11:20:41;4.13;;;1.13;;
54191;SDS011;40101;53.002;6.488;2023-07-29T11:23:07;3.50;;;0.93;;
54191;SDS011;40101;53.002;6.488;2023-07-29T11:25:32;5.75;;;1.38;;
54191;SDS011;40101;53.002;6.488;2023-07-29T11:28:01;5.25;;;1.55;;
54191;SDS011;40101;53.002;6.488;2023-07-29T11:30:27;2.38;;;0.95;;
54191;SDS011;40101;53.002;6.488;2023-07-29T11:32:54;6.60;;;1.63;;
54191;SDS011;40101;53.002;6.488;2023-07-29T11:35:23;2.47;;;1.10;;
54191;SDS011;40101;53.002;6.488;2023-07-29T11:37:50;4.50;;;1.60;;
54191;SDS011;40101;53.002;6.488;2023-07-29T11:40:17;5.30;;;2.05;;
54191;SDS011;40101;53.002;6.488;2023-07-29T11:42:44;4.20;;;1.48;;
54191;SDS011;40101;53.002;6.488;2023-07-29T11:45:15;2.88;;;1.60;;
54191;SDS011;40101;53.002;6.488;2023-07-29T11:47:41;9.85;;;2.97;;
54191;SDS011;40101;53.002;6.488;2023-07-29T11:50:07;2.67;;;1.40;;
54191;SDS011;40101;53.002;6.488;2023-07-29T11:52:35;6.22;;;1.60;;
54191;SDS011;40101;53.002;6.488;2023-07-29T11:55:02;5.05;;;1.77;;
54191;SDS011;40101;53.002;6.488;2023-07-29T11:57:29;3.38;;;1.60;;
54191;SDS011;40101;53.002;6.488;2023-07-29T12:00:01;3.65;;;1.83;;
54191;SDS011;40101;53.002;6.488;2023-07-29T12:02:31;5.80;;;1.90;;
54191;SDS011;40101;53.002;6.488;2023-07-29T12:05:01;3.75;;;1.67;;
54191;SDS011;40101;53.002;6.488;2023-07-29T12:07:29;5.95;;;2.47;;
54191;SDS011;40101;53.002;6.488;2023-07-29T12:09:55;6.65;;;2.35;;
54191;SDS011;40101;53.002;6.488;2023-07-29T12:12:22;3.78;;;1.48;;
54191;SDS011;40101;53.002;6.488;2023-07-29T12:14:48;8.38;;;1.95;;
54191;SDS011;40101;53.002;6.488;2023-07-29T12:17:14;5.97;;;1.50;;
54191;SDS011;40101;53.002;6.488;2023-07-29T12:19:40;5.32;;;3.10;;
54191;SDS011;40101;53.002;6.488;2023-07-29T12:22:08;4.40;;;2.30;;
54191;SDS011;40101;53.002;6.488;2023-07-29T12:24:36;3.15;;;1.67;;
54191;SDS011;40101;53.002;6.488;2023-07-29T12:27:03;5.88;;;1.60;;
54191;SDS011;40101;53.002;6.488;2023-07-29T12:29:29;2.67;;;1.15;;
54191;SDS011;40101;53.002;6.488;2023-07-29T12:32:01;3.83;;;1.38;;
54191;SDS011;40101;53.002;6.488;2023-07-29T12:34:28;2.65;;;1.38;;
54191;SDS011;40101;53.002;6.488;2023-07-29T12:36:55;2.85;;;1.58;;
54191;SDS011;40101;53.002;6.488;2023-07-29T12:39:26;3.35;;;1.40;;
54191;SDS011;40101;53.002;6.488;2023-07-29T12:41:57;2.28;;;1.15;;
54191;SDS011;40101;53.002;6.488;2023-07-29T12:44:25;4.60;;;2.20;;
54191;SDS011;40101;53.002;6.488;2023-07-29T12:46:55;1.98;;;1.50;;
54191;SDS011;40101;53.002;6.488;2023-07-29T12:49:21;6.22;;;1.77;;
54191;SDS011;40101;53.002;6.488;2023-07-29T12:51:47;7.03;;;1.73;;
54191;SDS011;40101;53.002;6.488;2023-07-29T12:54:13;5.13;;;1.55;;
54191;SDS011;40101;53.002;6.488;2023-07-29T12:56:39;6.05;;;1.63;;
54191;SDS011;40101;53.002;6.488;2023-07-29T12:59:05;3.88;;;1.13;;
54191;SDS011;40101;53.002;6.488;2023-07-29T13:01:31;3.05;;;1.45;;
54191;SDS011;40101;53.002;6.488;2023-07-29T13:03:56;3.30;;;1.17;;
54191;SDS011;40101;53.002;6.488;2023-07-29T13:06:22;2.83;;;1.20;;
54191;SDS011;40101;53.002;6.488;2023-07-29T13:08:48;2.88;;;1.35;;
54191;SDS011;40101;53.002;6.488;2023-07-29T13:11:14;2.92;;;1.50;;
54191;SDS011;40101;53.002;6.488;2023-07-29T13:13:40;4.68;;;1.27;;
54191;SDS011;40101;53.002;6.488;2023-07-29T13:16:06;2.83;;;1.17;;
54191;SDS011;40101;53.002;6.488;2023-07-29T13:18:32;3.53;;;1.10;;
54191;SDS011;40101;53.002;6.488;2023-07-29T13:20:58;3.53;;;1.55;;
54191;SDS011;40101;53.002;6.488;2023-07-29T13:23:25;4.90;;;1.55;;
54191;SDS011;40101;53.002;6.488;2023-07-29T13:25:51;4.55;;;0.90;;
54191;SDS011;40101;53.002;6.488;2023-07-29T13:28:16;3.05;;;1.00;;
54191;SDS011;40101;53.002;6.488;2023-07-29T13:30:44;1.50;;;0.60;;
54191;SDS011;40101;53.002;6.488;2023-07-29T13:33:09;2.67;;;0.90;;
54191;SDS011;40101;53.002;6.488;2023-07-29T13:35:35;1.08;;;0.50;;
54191;SDS011;40101;53.002;6.488;2023-07-29T13:38:01;1.27;;;0.50;;
54191;SDS011;40101;53.002;6.488;2023-07-29T13:40:27;5.82;;;0.57;;
54191;SDS011;40101;53.002;6.488;2023-07-29T13:42:53;0.88;;;0.43;;
54191;SDS011;40101;53.002;6.488;2023-07-29T13:45:19;2.72;;;0.55;;
54191;SDS011;40101;53.002;6.488;2023-07-29T13:47:45;1.77;;;0.60;;
54191;SDS011;40101;53.002;6.488;2023-07-29T13:50:11;1.40;;;0.40;;
54191;SDS011;40101;53.002;6.488;2023-07-29T13:52:37;0.50;;;0.50;;
54191;SDS011;40101;53.002;6.488;2023-07-29T13:55:03;1.20;;;0.50;;
54191;SDS011;40101;53.002;6.488;2023-07-29T13:57:30;2.97;;;0.80;;
54191;SDS011;40101;53.002;6.488;2023-07-29T13:59:56;1.42;;;0.70;;
54191;SDS011;40101;53.002;6.488;2023-07-29T14:02:21;1.10;;;0.80;;
54191;SDS011;40101;53.002;6.488;2023-07-29T14:04:47;1.50;;;0.57;;
54191;SDS011;40101;53.002;6.488;2023-07-29T14:07:13;3.60;;;0.93;;
54191;SDS011;40101;53.002;6.488;2023-07-29T14:09:39;2.90;;;1.00;;
54191;SDS011;40101;53.002;6.488;2023-07-29T14:12:05;1.33;;;0.60;;
54191;SDS011;40101;53.002;6.488;2023-07-29T14:14:31;1.17;;;0.57;;
54191;SDS011;40101;53.002;6.488;2023-07-29T14:16:57;2.75;;;0.50;;
54191;SDS011;40101;53.002;6.488;2023-07-29T14:19:23;5.35;;;0.75;;
54191;SDS011;40101;53.002;6.488;2023-07-29T14:21:49;2.75;;;0.90;;
54191;SDS011;40101;53.002;6.488;2023-07-29T14:24:14;4.35;;;0.80;;
54191;SDS011;40101;53.002;6.488;2023-07-29T14:26:41;2.17;;;0.60;;
54191;SDS011;40101;53.002;6.488;2023-07-29T14:29:07;2.55;;;0.68;;
54191;SDS011;40101;53.002;6.488;2023-07-29T14:31:33;1.15;;;0.55;;
54191;SDS011;40101;53.002;6.488;2023-07-29T14:33:58;0.70;;;0.60;;
54191;SDS011;40101;53.002;6.488;2023-07-29T14:36:24;2.10;;;0.57;;
54191;SDS011;40101;53.002;6.488;2023-07-29T14:38:50;2.40;;;0.70;;
54191;SDS011;40101;53.002;6.488;2023-07-29T14:41:16;1.05;;;0.55;;
54191;SDS011;40101;53.002;6.488;2023-07-29T14:43:42;1.85;;;0.60;;
54191;SDS011;40101;53.002;6.488;2023-07-29T14:46:08;2.05;;;0.70;;
54191;SDS011;40101;53.002;6.488;2023-07-29T14:48:34;0.95;;;0.50;;
54191;SDS011;40101;53.002;6.488;2023-07-29T14:50:59;2.85;;;0.60;;
54191;SDS011;40101;53.002;6.488;2023-07-29T14:53:25;0.88;;;0.40;;
54191;SDS011;40101;53.002;6.488;2023-07-29T14:55:51;2.67;;;0.60;;
54191;SDS011;40101;53.002;6.488;2023-07-29T14:58:16;1.10;;;0.50;;
54191;SDS011;40101;53.002;6.488;2023-07-29T15:00:42;2.53;;;0.60;;